Time;durP1;ratioP1;P1;durP2;ratioP2;P2;SDS_P1;SDS_P2;PMS_P1;PMS_P2;Temp;Humidity;BMP_temperature;BMP_pressure;BME280_temperature;BME280_humidity;BME280_pressure;Samples;Min_cycle;Max_cycle;Signal;HPM_P1;HPM_P2
2023/01/15 00:04:11;;;;;;;10.32;2.45;;;;;;;6.34;100.00;99690.97;5034355;28;20078;-85
2023/01/15 00:09:58;;;;;;;12.10;2.55;;;;;;;6.18;100.00;99705.56;5034599;28;20539;-85
2023/01/15 00:15:45;;;;;;;12.05;2.47;;;;;;;6.18;100.00;99718.03;5033852;28;20067;-84
2023/01/15 00:21:32;;;;;;;7.78;2.70;;;;;;;6.07;100.00;99705.41;5033792;28;20491;-86
2023/01/15 00:33:39;;;;;;;9.52;2.85;;;;;;;5.95;100.00;99696.50;4953349;29;20416;-84
2023/01/15 00:39:26;;;;;;;13.68;3.40;;;;;;;5.91;100.00;99693.47;4965798;28;20033;-85
2023/01/15 00:45:14;;;;;;;8.82;3.72;;;;;;;5.96;100.00;99722.84;5035086;28;20052;-85
2023/01/15 00:51:02;;;;;;;12.05;2.80;;;;;;;5.78;100.00;99720.84;5033949;28;20043;-84
2023/01/15 00:56:49;;;;;;;12.98;3.30;;;;;;;5.80;100.00;99731.25;5033596;28;20040;-84
2023/01/15 01:02:37;;;;;;;15.80;2.88;;;;;;;5.74;100.00;99727.59;5033494;28;20385;-83
2023/01/15 01:08:24;;;;;;;6.10;2.20;;;;;;;5.68;100.00;99720.47;5032974;28;20044;-85
2023/01/15 01:14:11;;;;;;;12.52;3.00;;;;;;;5.70;100.00;99734.34;5033047;28;20385;-85
2023/01/15 01:19:58;;;;;;;13.07;4.25;;;;;;;5.72;100.00;99732.28;5032730;28;20103;-84
2023/01/15 01:25:46;;;;;;;10.73;3.25;;;;;;;5.58;100.00;99730.72;5032669;28;20049;-85
2023/01/15 01:31:33;;;;;;;14.10;2.92;;;;;;;5.58;100.00;99714.81;5032453;28;20592;-85
2023/01/15 01:37:20;;;;;;;14.85;2.72;;;;;;;5.57;100.00;99726.44;5032894;28;20032;-85
2023/01/15 01:43:23;;;;;;;16.95;4.38;;;;;;;5.70;100.00;99739.63;5033277;28;20060;-85
2023/01/15 01:49:13;;;;;;;15.70;4.10;;;;;;;5.58;100.00;99744.78;5033068;28;20032;-84
2023/01/15 01:58:23;;;;;;;11.25;2.30;;;;;;;5.58;100.00;99728.88;5032985;28;20040;-84
2023/01/15 02:04:11;;;;;;;11.93;2.67;;;;;;;5.62;100.00;99731.91;5032834;28;20060;-85
2023/01/15 02:09:58;;;;;;;6.95;2.78;;;;;;;5.47;100.00;99724.19;5032675;28;20099;-84
2023/01/15 02:15:49;;;;;;;13.05;2.78;;;;;;;5.56;100.00;99740.72;5033004;28;20171;-85
2023/01/15 02:21:48;;;;;;;21.35;3.70;;;;;;;5.49;100.00;99739.91;5032078;28;20563;-84
2023/01/15 02:27:41;;;;;;;9.35;2.67;;;;;;;5.45;100.00;99730.72;5032467;28;20053;-84
2023/01/15 02:33:39;;;;;;;11.10;2.53;;;;;;;5.45;100.00;99718.28;5032070;28;20048;-84
2023/01/15 02:39:28;;;;;;;7.60;2.60;;;;;;;5.33;100.00;99700.59;5033069;28;20091;-85
2023/01/15 02:41:58;;;;;;;7.82;3.25;;;;;;;5.29;100.00;99705.50;5031094;28;20120;-85
2023/01/15 02:47:46;;;;;;;15.75;2.83;;;;;;;5.31;100.00;99713.25;5031886;28;20164;-82
2023/01/15 02:56:57;;;;;;;16.88;2.63;;;;;;;5.29;100.00;99706.31;5031672;28;20040;-83
2023/01/15 03:02:50;;;;;;;14.27;3.58;;;;;;;5.30;100.00;99688.59;5031929;28;20056;-82
2023/01/15 03:13:01;;;;;;;12.82;2.53;;;;;;;5.21;100.00;99713.69;5032074;28;20428;-84
2023/01/15 03:18:55;;;;;;;11.82;2.75;;;;;;;5.34;100.00;99712.84;5032142;28;20612;-85
2023/01/15 03:24:54;;;;;;;9.27;3.15;;;;;;;5.30;100.00;99701.84;5032102;28;20044;-83
2023/01/15 03:27:20;;;;;;;10.13;2.90;;;;;;;5.29;100.00;99700.22;5014042;28;20061;-85
2023/01/15 03:33:10;;;;;;;13.68;2.25;;;;;;;5.35;100.00;99695.91;5035205;28;20091;-84
2023/01/15 03:38:58;;;;;;;14.10;2.70;;;;;;;5.20;100.00;99685.53;5035700;28;20061;-84
2023/01/15 03:41:48;;;;;;;8.90;2.83;;;;;;;5.24;100.00;99706.13;5034211;28;20121;-84
2023/01/15 03:44:25;;;;;;;13.90;2.70;;;;;;;5.23;100.00;99701.84;5034879;28;20029;-84
2023/01/15 03:47:30;;;;;;;12.25;2.97;;;;;;;5.18;100.00;99700.81;5034219;28;20582;-84
2023/01/15 03:53:29;;;;;;;8.25;2.28;;;;;;;5.19;100.00;99711.22;5034895;28;20048;-84
2023/01/15 03:59:21;;;;;;;14.13;2.85;;;;;;;5.13;100.00;99693.50;5034814;28;20107;-83
2023/01/15 04:05:08;;;;;;;9.60;3.22;;;;;;;5.15;100.00;99683.50;5035144;28;20523;-84
2023/01/15 04:10:57;;;;;;;15.35;2.88;;;;;;;5.12;100.00;99677.81;5034958;28;20613;-83
2023/01/15 04:16:44;;;;;;;14.55;3.53;;;;;;;5.07;100.00;99696.97;5034655;28;20048;-83
2023/01/15 04:19:10;;;;;;;9.73;2.00;;;;;;;5.05;100.00;99698.22;5015914;28;20049;-83
2023/01/15 04:21:35;;;;;;;12.63;2.95;;;;;;;5.04;100.00;99700.06;5034544;28;20026;-83
2023/01/15 04:24:00;;;;;;;13.23;2.45;;;;;;;5.01;100.00;99702.31;5016615;28;20704;-83
2023/01/15 04:29:47;;;;;;;13.35;3.08;;;;;;;4.91;100.00;99681.50;5034780;28;20087;-83
2023/01/15 04:32:13;;;;;;;8.27;2.30;;;;;;;4.95;100.00;99694.16;5033560;28;20068;-83
2023/01/15 04:38:00;;;;;;;13.52;3.20;;;;;;;4.92;100.00;99705.16;5034562;28;20053;-84
2023/01/15 04:46:41;;;;;;;12.85;2.60;;;;;;;4.91;100.00;99723.88;5034168;28;20099;-84
2023/01/15 04:49:09;;;;;;;17.02;3.35;;;;;;;4.96;100.00;99702.91;5034268;28;20116;-85
2023/01/15 04:51:36;;;;;;;14.25;3.00;;;;;;;4.93;100.00;99711.28;5015458;28;20033;-83
2023/01/15 04:54:03;;;;;;;10.18;2.25;;;;;;;4.97;100.00;99712.50;5016111;28;20040;-84
2023/01/15 04:56:28;;;;;;;12.05;2.75;;;;;;;4.91;100.00;99721.25;5016151;28;20389;-84
2023/01/15 04:58:53;;;;;;;20.00;3.28;;;;;;;4.91;100.00;99731.84;5032813;28;20132;-84
2023/01/15 05:04:40;;;;;;;17.30;3.28;;;;;;;4.91;100.00;99718.59;5034350;28;20053;-82
2023/01/15 05:07:06;;;;;;;15.50;3.35;;;;;;;4.72;100.00;99695.59;5033157;28;20037;-83
2023/01/15 05:12:53;;;;;;;10.32;2.45;;;;;;;4.79;100.00;99714.94;5029377;28;20096;-83
2023/01/15 05:18:42;;;;;;;15.05;2.40;;;;;;;4.86;100.00;99718.38;5033552;28;20125;-82
2023/01/15 05:24:29;;;;;;;13.48;3.13;;;;;;;4.88;100.00;99706.56;5033754;28;20084;-85
2023/01/15 05:26:54;;;;;;;14.52;3.80;;;;;;;4.87;100.00;99691.69;5011150;28;20128;-83
2023/01/15 05:32:41;;;;;;;12.13;2.10;;;;;;;4.78;100.00;99698.25;5033056;28;20040;-83
2023/01/15 05:35:07;;;;;;;20.77;2.97;;;;;;;4.87;100.00;99704.13;5033770;28;20109;-83
2023/01/15 05:40:54;;;;;;;15.55;2.60;;;;;;;4.84;100.00;99702.72;5033539;28;20123;-83
2023/01/15 05:46:43;;;;;;;4.65;2.00;;;;;;;4.83;100.00;99685.19;5033266;28;20035;-84
2023/01/15 05:49:11;;;;;;;8.82;2.13;;;;;;;4.89;100.00;99694.16;5015321;28;20113;-84
2023/01/15 05:54:58;;;;;;;9.73;3.53;;;;;;;4.84;100.00;99693.94;5033359;28;20072;-83
2023/01/15 06:00:45;;;;;;;16.65;2.88;;;;;;;4.62;100.00;99682.75;5033294;28;20617;-83
2023/01/15 06:03:11;;;;;;;18.95;2.70;;;;;;;4.68;100.00;99681.97;5033180;28;20033;-84
2023/01/15 06:05:36;;;;;;;10.25;2.55;;;;;;;4.72;100.00;99698.25;5032774;28;20556;-84
2023/01/15 06:08:02;;;;;;;14.20;2.60;;;;;;;4.78;100.00;99708.00;5033089;28;20025;-83
2023/01/15 06:10:28;;;;;;;13.40;2.90;;;;;;;4.65;100.00;99677.06;5015383;28;20038;-84
2023/01/15 06:12:53;;;;;;;13.40;2.97;;;;;;;4.77;100.00;99709.03;5032533;28;20051;-84
2023/01/15 06:18:41;;;;;;;13.88;3.40;;;;;;;4.81;100.00;99718.19;5033060;28;20064;-82
2023/01/15 06:24:27;;;;;;;9.27;2.63;;;;;;;4.89;100.00;99720.63;5032919;28;20420;-82
2023/01/15 06:26:53;;;;;;;18.52;2.63;;;;;;;4.85;100.00;99716.75;5014094;28;20037;-82
2023/01/15 06:29:19;;;;;;;12.20;2.75;;;;;;;4.84;100.00;99717.78;5032487;28;20061;-82
2023/01/15 06:35:06;;;;;;;14.38;3.63;;;;;;;4.70;100.00;99724.94;5032704;28;20048;-82
2023/01/15 06:37:31;;;;;;;17.23;3.22;;;;;;;4.62;100.00;99720.63;5032220;28;20025;-81
2023/01/15 06:39:57;;;;;;;14.75;2.65;;;;;;;4.64;100.00;99715.16;5031330;28;20497;-82
2023/01/15 06:47:53;;;;;;;8.20;2.22;;;;;;;4.54;100.00;99715.53;5025216;28;20147;-82
2023/01/15 06:53:40;;;;;;;11.57;2.60;;;;;;;4.52;100.00;99714.94;5032393;28;20044;-82
2023/01/15 06:56:05;;;;;;;13.13;2.80;;;;;;;4.50;100.00;99721.44;5014373;28;20030;-84
2023/01/15 06:58:30;;;;;;;11.60;3.22;;;;;;;4.40;100.00;99713.09;5032006;28;20022;-83
2023/01/15 07:04:23;;;;;;;8.57;2.50;;;;;;;4.28;100.00;99723.44;5032102;28;20039;-83
2023/01/15 07:06:48;;;;;;;9.65;2.20;;;;;;;4.35;100.00;99732.22;5030511;28;20045;-85
2023/01/15 07:12:35;;;;;;;9.18;2.55;;;;;;;4.21;100.00;99730.56;5031922;28;20393;-83
2023/01/15 07:15:00;;;;;;;17.05;3.33;;;;;;;4.23;100.00;99744.41;5031963;28;20029;-83
2023/01/15 07:17:29;;;;;;;8.45;2.38;;;;;;;4.33;100.00;99736.88;5014231;28;20112;-83
2023/01/15 07:19:54;;;;;;;12.55;2.75;;;;;;;4.37;100.00;99756.66;5013519;28;20172;-83
2023/01/15 07:25:40;;;;;;;10.77;2.65;;;;;;;4.43;100.00;99761.13;5032201;28;20036;-83
2023/01/15 07:28:06;;;;;;;6.53;2.15;;;;;;;4.37;100.00;99754.00;5013363;28;20033;-83
2023/01/15 07:33:55;;;;;;;7.43;2.40;;;;;;;4.34;100.00;99749.94;5032221;28;20134;-83
2023/01/15 07:36:22;;;;;;;6.68;2.50;;;;;;;4.50;100.00;99743.44;5032153;28;20033;-83
2023/01/15 07:54:21;;;;;;;5.70;1.88;;;;;;;4.45;100.00;99745.06;5031548;28;20044;-86
2023/01/15 07:56:47;;;;;;;5.97;2.00;;;;;;;4.43;100.00;99770.91;5013360;28;20026;-84
2023/01/15 08:02:34;;;;;;;19.90;3.03;;;;;;;4.40;100.00;99777.44;5031166;28;20036;-84
2023/01/15 08:08:21;;;;;;;10.95;2.75;;;;;;;4.38;100.00;99771.53;5031702;28;20052;-84
2023/01/15 08:20:23;;;;;;;8.02;1.85;;;;;;;4.41;100.00;99787.00;5034433;28;20160;-83
2023/01/15 08:26:10;;;;;;;5.07;2.00;;;;;;;4.35;100.00;99778.03;5034331;28;20131;-82
2023/01/15 08:31:57;;;;;;;9.75;2.65;;;;;;;5.40;100.00;99783.56;5034145;28;20040;-83
2023/01/15 08:37:44;;;;;;;11.15;2.50;;;;;;;6.48;100.00;99788.09;5034046;28;20106;-82
2023/01/15 08:43:34;;;;;;;7.68;2.95;;;;;;;7.36;100.00;99781.91;5033891;28;20528;-82
2023/01/15 08:46:02;;;;;;;8.02;2.38;;;;;;;7.37;100.00;99771.06;5032831;28;20148;-84
2023/01/15 08:48:29;;;;;;;11.00;2.17;;;;;;;7.19;100.00;99778.19;5033816;28;20389;-85
2023/01/15 08:54:21;;;;;;;9.45;2.08;;;;;;;7.05;100.00;99765.00;5034045;28;20520;-84
2023/01/15 09:00:09;;;;;;;6.88;2.03;;;;;;;7.57;100.00;99756.75;5033837;28;20099;-83
2023/01/15 09:02:34;;;;;;;9.43;2.63;;;;;;;7.31;100.00;99787.91;5033485;28;20034;-86
2023/01/15 09:08:21;;;;;;;10.00;2.22;;;;;;;7.82;100.00;99764.66;5033656;28;20041;-83
2023/01/15 09:14:09;;;;;;;9.45;2.40;;;;;;;7.94;100.00;99753.03;5033581;28;20924;-82
2023/01/15 09:19:56;;;;;;;11.93;2.78;;;;;;;8.14;99.88;99757.31;5033379;28;20048;-83
2023/01/15 09:25:54;;;;;;;9.55;2.25;;;;;;;8.45;96.81;99766.97;5033101;28;20388;-83
2023/01/15 09:31:41;;;;;;;7.93;2.38;;;;;;;8.49;97.41;99771.59;5032188;28;20052;-82
2023/01/15 09:37:27;;;;;;;9.65;2.55;;;;;;;7.69;100.00;99766.44;5032954;28;20342;-83
2023/01/15 09:43:26;;;;;;;7.68;2.25;;;;;;;7.01;100.00;99768.34;5033114;28;20087;-82
2023/01/15 09:49:31;;;;;;;11.55;2.95;;;;;;;6.73;100.00;99779.38;5033142;28;20043;-84
2023/01/15 09:55:31;;;;;;;10.20;2.72;;;;;;;6.50;100.00;99780.72;5032940;28;20048;-83
2023/01/15 09:58:03;;;;;;;7.70;2.22;;;;;;;7.31;100.00;99757.84;5031103;28;20496;-83
2023/01/15 10:04:00;;;;;;;6.55;2.13;;;;;;;8.14;100.00;99779.44;5032782;28;20036;-83
2023/01/15 10:10:03;;;;;;;5.78;2.10;;;;;;;7.93;98.09;99820.63;5033001;28;20064;-88
2023/01/15 10:12:34;;;;;;;11.95;2.60;;;;;;;7.60;100.00;99786.38;5014107;28;20169;-83
2023/01/15 10:18:23;;;;;;;9.35;2.45;;;;;;;7.25;100.00;99788.78;5032493;28;20124;-83
2023/01/15 10:24:15;;;;;;;12.85;2.60;;;;;;;7.96;96.06;99779.44;5032544;28;20178;-84
2023/01/15 10:30:05;;;;;;;6.90;1.83;;;;;;;7.36;100.00;99806.66;5032734;28;20044;-83
2023/01/15 10:36:14;;;;;;;9.35;2.88;;;;;;;7.58;100.00;99782.31;5032444;28;20048;-85
2023/01/15 10:42:31;;;;;;;13.15;2.30;;;;;;;7.45;100.00;99796.56;5032396;28;20040;-84
2023/01/15 10:48:41;;;;;;;5.68;2.25;;;;;;;8.27;99.71;99792.56;5032180;28;20053;-85
2023/01/15 10:51:23;;;;;;;11.30;2.65;;;;;;;8.01;100.00;99793.69;5031345;28;20045;-84
2023/01/15 10:57:17;;;;;;;13.63;2.35;;;;;;;7.65;100.00;99789.19;5031308;28;20512;-84
2023/01/15 11:03:13;;;;;;;9.68;2.72;;;;;;;8.05;96.36;99740.81;5031720;28;20036;-84
2023/01/15 11:05:39;;;;;;;9.82;2.47;;;;;;;7.98;99.18;99802.13;5030495;28;20671;-84
2023/01/15 11:08:12;;;;;;;16.77;2.85;;;;;;;7.71;100.00;99784.84;5013887;28;20095;-83
2023/01/15 11:10:39;;;;;;;7.70;1.98;;;;;;;7.64;100.00;99808.03;5030865;28;20045;-84
2023/01/15 11:22:28;;;;;;;9.15;2.45;;;;;;;7.49;100.00;99795.06;5032125;28;20048;-85
2023/01/15 11:28:16;;;;;;;5.03;2.03;;;;;;;7.29;100.00;99824.53;5031974;28;20044;-83
2023/01/15 11:30:44;;;;;;;6.18;2.25;;;;;;;7.13;100.00;99787.84;5013244;28;20481;-84
2023/01/15 11:36:31;;;;;;;4.72;2.05;;;;;;;7.36;100.00;99795.22;5031663;28;20160;-83
2023/01/15 11:38:57;;;;;;;5.57;2.53;;;;;;;7.87;100.00;99789.56;5029980;28;20068;-81
2023/01/15 11:51:08;;;;;;;5.97;1.80;;;;;;;6.97;100.00;99842.38;5032325;28;20080;-83
2023/01/15 11:56:56;;;;;;;7.45;2.00;;;;;;;7.03;100.00;99806.94;5035392;28;20067;-80
2023/01/15 12:02:45;;;;;;;7.38;2.20;;;;;;;6.79;100.00;99797.09;5034220;28;20099;-84
2023/01/15 12:08:44;;;;;;;5.68;2.33;;;;;;;6.69;100.00;99802.09;5034869;28;20432;-83
2023/01/15 12:11:44;;;;;;;9.52;2.25;;;;;;;6.67;100.00;99788.22;5026412;28;20050;-82
2023/01/15 12:14:28;;;;;;;7.50;1.77;;;;;;;6.55;100.00;99798.69;5016639;28;20072;-82
2023/01/15 12:20:29;;;;;;;5.47;1.70;;;;;;;6.45;100.00;99801.81;5034455;28;20037;-82
2023/01/15 12:22:57;;;;;;;5.43;2.22;;;;;;;6.41;100.00;99787.34;5033417;28;20076;-81
2023/01/15 12:29:05;;;;;;;4.93;1.63;;;;;;;6.48;100.00;99806.69;5034120;28;20102;-82
2023/01/15 12:35:06;;;;;;;7.32;1.95;;;;;;;6.39;100.00;99793.88;5034444;28;20419;-83
2023/01/15 12:41:01;;;;;;;6.18;1.88;;;;;;;6.32;100.00;99788.59;5034515;28;20136;-88
2023/01/15 12:46:48;;;;;;;5.35;2.50;;;;;;;6.56;100.00;99779.06;5034194;28;20369;-84
2023/01/15 12:52:41;;;;;;;6.25;2.15;;;;;;;6.63;100.00;99774.50;5034019;28;20033;-85
2023/01/15 12:58:35;;;;;;;5.43;1.52;;;;;;;6.53;100.00;99758.25;5033935;28;20056;-82
2023/01/15 13:04:40;;;;;;;4.93;2.70;;;;;;;6.56;100.00;99762.31;5033269;28;20133;-80
2023/01/15 13:10:33;;;;;;;5.55;2.20;;;;;;;6.63;100.00;99792.28;5034451;28;20124;-82
2023/01/15 13:16:41;;;;;;;10.90;2.30;;;;;;;6.61;100.00;99783.72;5033775;28;20052;-84
2023/01/15 13:22:31;;;;;;;4.68;2.30;;;;;;;6.55;100.00;99779.28;5034157;28;20401;-83
2023/01/15 13:28:44;;;;;;;2.92;2.00;;;;;;;6.46;100.00;99779.53;5033502;28;20536;-79
2023/01/15 13:34:44;;;;;;;9.82;2.70;;;;;;;6.36;100.00;99781.84;5033113;28;20547;-82
2023/01/15 13:40:42;;;;;;;7.63;2.08;;;;;;;6.60;100.00;99787.41;5035018;28;20064;-82
2023/01/15 13:46:30;;;;;;;7.07;2.17;;;;;;;6.78;100.00;99788.31;5035197;28;20049;-80
2023/01/15 13:52:34;;;;;;;7.28;2.00;;;;;;;6.72;100.00;99786.53;5033657;28;20543;-80
2023/01/15 13:58:25;;;;;;;11.50;2.60;;;;;;;6.83;100.00;99785.00;5034925;28;20040;-83
2023/01/15 14:04:16;;;;;;;6.82;2.08;;;;;;;6.70;100.00;99809.03;5034999;28;20079;-81
2023/01/15 14:10:25;;;;;;;6.82;2.97;;;;;;;6.76;100.00;99810.81;5034944;28;20048;-78
2023/01/15 14:16:29;;;;;;;7.22;2.50;;;;;;;6.82;100.00;99802.78;5033131;28;20104;-78
2023/01/15 14:22:46;;;;;;;7.53;2.35;;;;;;;7.14;100.00;99808.06;5034728;28;20048;-81
2023/01/15 14:28:34;;;;;;;8.45;2.30;;;;;;;7.03;100.00;99816.75;5034694;28;20099;-82
2023/01/15 14:34:24;;;;;;;10.32;2.25;;;;;;;7.04;100.00;99805.09;5033661;28;20044;-80
2023/01/15 14:47:00;;;;;;;3.20;2.15;;;;;;;6.70;100.00;99812.50;5033398;28;20049;-82
2023/01/15 14:52:49;;;;;;;4.18;1.90;;;;;;;6.63;100.00;99846.22;5034424;28;20122;-82
2023/01/15 14:58:53;;;;;;;9.13;2.15;;;;;;;6.49;100.00;99831.41;5033889;28;20060;-80
2023/01/15 15:04:47;;;;;;;12.18;2.55;;;;;;;6.41;100.00;99832.47;5034159;28;20048;-80
2023/01/15 15:10:40;;;;;;;5.10;2.05;;;;;;;6.35;100.00;99825.31;5033117;28;20287;-81
2023/01/15 15:16:30;;;;;;;3.95;2.10;;;;;;;6.32;100.00;99822.28;5033278;28;20063;-81
2023/01/15 15:22:18;;;;;;;4.80;1.88;;;;;;;6.04;100.00;99825.25;5033645;28;20064;-81
2023/01/15 15:24:52;;;;;;;5.40;2.10;;;;;;;6.08;100.00;99843.22;5015083;28;20088;-83
2023/01/15 15:30:45;;;;;;;4.03;2.13;;;;;;;5.94;100.00;99848.75;5036608;28;20048;-81
2023/01/15 15:36:35;;;;;;;4.70;2.08;;;;;;;5.77;100.00;99841.22;5036948;28;20152;-81
2023/01/15 15:48:55;;;;;;;5.35;2.08;;;;;;;5.58;100.00;99852.69;5036816;28;20079;-85
2023/01/15 15:54:42;;;;;;;3.90;1.95;;;;;;;5.51;100.00;99834.13;5037574;28;20436;-85
2023/01/15 16:00:40;;;;;;;6.80;2.65;;;;;;;5.54;100.00;99854.13;5037497;28;20041;-84
2023/01/15 16:06:47;;;;;;;2.92;1.92;;;;;;;5.45;100.00;99847.38;5036233;28;20740;-83
2023/01/15 16:16:10;;;;;;;9.75;2.63;;;;;;;5.34;100.00;99843.53;5036141;28;20088;-83
2023/01/15 16:22:18;;;;;;;5.95;2.47;;;;;;;5.58;100.00;99879.19;5036138;28;20481;-87
2023/01/15 16:28:20;;;;;;;4.85;3.28;;;;;;;5.60;100.00;99879.81;5036493;28;20111;-82
2023/01/15 16:34:26;;;;;;;3.05;1.90;;;;;;;5.45;100.00;99858.78;5035698;28;20405;-81
2023/01/15 16:40:25;;;;;;;8.70;2.60;;;;;;;5.27;100.00;99855.97;5036305;28;20044;-82
2023/01/15 16:46:18;;;;;;;6.43;2.20;;;;;;;5.36;100.00;99883.88;5036423;28;20548;-81
2023/01/15 16:52:47;;;;;;;3.95;2.00;;;;;;;5.35;100.00;99876.13;5035303;28;20052;-81
2023/01/15 16:58:37;;;;;;;3.65;1.90;;;;;;;5.37;100.00;99885.53;5035750;28;20428;-82
2023/01/15 17:04:29;;;;;;;5.53;2.25;;;;;;;5.15;100.00;99889.38;5037598;28;20060;-82
2023/01/15 17:10:23;;;;;;;6.22;1.88;;;;;;;5.03;100.00;99886.50;5035272;28;20045;-82
2023/01/15 17:16:19;;;;;;;2.92;2.08;;;;;;;4.94;100.00;99885.91;5034661;28;20049;-83
2023/01/15 17:22:14;;;;;;;3.65;2.10;;;;;;;4.74;100.00;99874.44;5034708;28;20390;-81
2023/01/15 17:28:02;;;;;;;4.57;1.77;;;;;;;4.79;100.00;99879.94;5035278;28;20113;-81
2023/01/15 17:33:50;;;;;;;4.28;2.28;;;;;;;4.77;100.00;99897.03;5034577;28;20044;-80
2023/01/15 17:39:37;;;;;;;4.72;2.20;;;;;;;4.76;100.00;99869.75;5034534;28;20051;-81
2023/01/15 17:45:48;;;;;;;7.40;1.98;;;;;;;4.87;100.00;99897.47;5034361;28;20064;-83
2023/01/15 17:51:35;;;;;;;3.03;1.77;;;;;;;4.78;100.00;99894.19;5034975;28;20092;-82
2023/01/15 18:13:19;;;;;;;3.72;2.03;;;;;;;4.08;100.00;99884.75;5033555;28;20095;-78
2023/01/15 18:19:06;;;;;;;2.08;1.67;;;;;;;4.04;100.00;99886.94;5033976;28;20091;-84
2023/01/15 18:25:07;;;;;;;5.53;1.80;;;;;;;3.90;100.00;99852.72;5034451;28;20044;-82
2023/01/15 18:30:55;;;;;;;4.03;2.53;;;;;;;3.91;100.00;99881.59;5033959;28;20556;-80
2023/01/15 18:36:45;;;;;;;7.75;2.30;;;;;;;3.82;100.00;99882.78;5034114;28;20172;-80
2023/01/15 18:39:12;;;;;;;1.98;1.75;;;;;;;3.69;100.00;99862.34;5015803;28;20116;-80
2023/01/15 18:51:24;;;;;;;4.22;2.10;;;;;;;3.68;100.00;99844.03;4992206;28;20593;-83
2023/01/15 18:57:11;;;;;;;5.65;2.38;;;;;;;3.98;100.00;99866.56;5001768;28;20048;-79
2023/01/15 19:02:58;;;;;;;5.53;2.63;;;;;;;3.92;100.00;99855.97;5033379;28;20091;-80
2023/01/15 19:05:23;;;;;;;2.85;1.73;;;;;;;4.03;100.00;99848.28;5015518;28;20424;-81
2023/01/15 19:11:14;;;;;;;9.05;2.60;;;;;;;3.93;100.00;99858.41;5033404;28;20125;-79
2023/01/15 19:20:25;;;;;;;4.82;2.40;;;;;;;3.77;100.00;99840.25;5033125;28;20174;-79
2023/01/15 19:26:12;;;;;;;3.70;2.13;;;;;;;3.70;100.00;99813.75;5032801;28;20096;-80
2023/01/15 19:32:01;;;;;;;4.97;2.50;;;;;;;3.73;100.00;99828.41;5033229;28;20398;-79
2023/01/15 19:34:30;;;;;;;5.28;2.25;;;;;;;3.54;100.00;99795.56;5032111;28;20087;-80
2023/01/15 19:40:25;;;;;;;6.47;2.70;;;;;;;3.76;100.00;99804.25;5032699;28;20433;-80
2023/01/15 19:52:36;;;;;;;5.65;2.20;;;;;;;3.66;100.00;99779.97;5032362;28;20048;-78
2023/01/15 19:58:23;;;;;;;8.50;3.05;;;;;;;3.67;100.00;99768.38;5032457;28;20068;-81
2023/01/15 20:04:11;;;;;;;4.00;2.58;;;;;;;3.66;100.00;99764.94;5032982;28;20044;-80
2023/01/15 20:09:59;;;;;;;10.93;3.03;;;;;;;3.57;100.00;99757.38;5031998;28;20496;-81
2023/01/15 20:15:46;;;;;;;9.27;4.65;;;;;;;3.56;100.00;99740.69;5035524;28;20135;-82
2023/01/15 20:21:36;;;;;;;14.75;4.45;;;;;;;3.45;100.00;99703.41;5035643;28;20060;-83
2023/01/15 20:27:23;;;;;;;5.97;3.40;;;;;;;3.73;100.00;99714.72;5034996;28;20037;-82
2023/01/15 20:35:38;;;;;;;8.57;3.03;;;;;;;3.92;100.00;99719.28;5035193;28;20124;-81
2023/01/15 20:38:04;;;;;;;5.35;2.80;;;;;;;3.92;100.00;99706.06;5017744;28;20057;-80
2023/01/15 20:46:36;;;;;;;10.90;2.67;;;;;;;4.08;100.00;99701.44;5034245;28;20041;-84
2023/01/15 20:52:23;;;;;;;6.03;2.88;;;;;;;3.87;100.00;99687.34;5034794;28;20043;-81
2023/01/15 20:58:09;;;;;;;5.95;2.40;;;;;;;3.85;100.00;99677.97;5034353;28;20087;-83
2023/01/15 21:03:56;;;;;;;9.77;2.92;;;;;;;3.82;100.00;99665.16;5035026;28;20036;-83
2023/01/15 21:09:43;;;;;;;9.30;2.90;;;;;;;3.88;100.00;99661.72;5035463;28;20090;-83
2023/01/15 21:15:31;;;;;;;5.85;2.63;;;;;;;3.88;100.00;99653.78;5035736;28;20095;-82
2023/01/15 21:21:19;;;;;;;6.85;2.45;;;;;;;3.81;100.00;99632.63;5034409;28;20044;-80
2023/01/15 21:23:45;;;;;;;5.78;2.47;;;;;;;3.83;100.00;99622.66;5033268;28;20127;-85
2023/01/15 21:29:35;;;;;;;8.07;2.58;;;;;;;3.83;100.00;99625.28;5037867;28;20044;-88
2023/01/15 21:35:22;;;;;;;13.13;3.70;;;;;;;3.82;100.00;99607.81;5034928;28;20057;-81
2023/01/15 21:44:31;;;;;;;12.80;2.92;;;;;;;4.13;100.00;99609.88;5034532;28;20057;-82
2023/01/15 21:50:19;;;;;;;8.02;2.95;;;;;;;4.23;100.00;99590.94;5036070;28;20048;-82
2023/01/15 21:56:06;;;;;;;9.40;2.70;;;;;;;4.39;100.00;99593.19;5034054;28;20167;-82
2023/01/15 22:01:55;;;;;;;9.68;2.90;;;;;;;4.33;100.00;99556.94;5034042;28;20072;-83
2023/01/15 22:07:42;;;;;;;6.55;2.80;;;;;;;4.43;100.00;99556.53;5034236;28;20041;-80
2023/01/15 22:13:31;;;;;;;9.38;3.13;;;;;;;4.41;100.00;99546.16;5033528;28;20040;-83
2023/01/15 22:19:20;;;;;;;6.13;2.15;;;;;;;4.31;100.00;99530.69;5033244;28;20052;-80
2023/01/15 22:25:10;;;;;;;7.22;2.55;;;;;;;4.19;100.00;99540.28;5033173;28;20051;-80
2023/01/15 22:30:56;;;;;;;5.63;2.83;;;;;;;3.90;100.00;99525.63;5033035;28;20059;-82
2023/01/15 22:36:43;;;;;;;7.10;2.85;;;;;;;3.89;100.00;99518.72;5032045;28;20048;-79
2023/01/15 22:42:31;;;;;;;8.38;2.50;;;;;;;3.81;100.00;99518.94;5032807;28;20396;-80
2023/01/15 22:48:19;;;;;;;5.90;2.38;;;;;;;3.70;100.00;99499.19;5032815;28;20048;-83
2023/01/15 22:54:11;;;;;;;5.95;2.70;;;;;;;3.50;100.00;99498.38;5032479;28;20044;-80
2023/01/15 22:59:59;;;;;;;5.43;1.90;;;;;;;3.31;100.00;99454.25;5032755;28;20524;-83
2023/01/15 23:06:24;;;;;;;4.20;2.60;;;;;;;3.35;100.00;99473.94;5032787;28;20378;-81
2023/01/15 23:12:11;;;;;;;4.07;2.72;;;;;;;3.38;100.00;99484.13;5032674;28;20047;-81
2023/01/15 23:14:36;;;;;;;5.53;3.42;;;;;;;3.47;100.00;99490.00;5030463;28;20037;-82
2023/01/15 23:20:23;;;;;;;6.38;3.83;;;;;;;3.44;100.00;99475.38;5032390;28;20045;-81
2023/01/15 23:26:14;;;;;;;3.33;2.65;;;;;;;3.53;100.00;99468.09;5031954;28;20103;-81
2023/01/15 23:32:01;;;;;;;4.72;2.60;;;;;;;3.47;100.00;99468.88;5032510;28;20435;-82
2023/01/15 23:37:53;;;;;;;3.92;2.75;;;;;;;3.18;100.00;99444.47;5032808;28;20055;-82
2023/01/15 23:40:18;;;;;;;4.65;2.75;;;;;;;3.28;100.00;99455.47;5030988;28;20045;-81
2023/01/15 23:48:48;;;;;;;4.68;3.08;;;;;;;3.18;100.00;99433.06;5035518;28;20056;-81
2023/01/15 23:54:36;;;;;;;6.95;3.42;;;;;;;3.16;100.00;99437.75;5035276;28;20040;-80
